Alytus, Lithuania
Current Conditions -  °F | °C
As of 8:20 AM on Thursday 27 Nov 2014 (Local Time) from EYKA Reporting Station
Overcast Overcast  
Wind Chill: 21°   Ceiling: 600
Heat Index: 27°   Visibility: 4mi
Dew Point: 23°   Wind: 5mph
Humidity: 86%   Direction: 130°SE
Pressure: 30.33"   Gusts: NA
Location:  54.39°N, 24.05°E
Report Text: EYKA 270520Z 13004KT 6000 OVC006 M03/M05 Q1027 R08/0///95
Loading
Personal Weather Stations






























Interactive Weather Map New forecast layout! Learn more

10-Day Weather Forecast

Advertisements
Track Severe Weather on mobile